Time;durP1;ratioP1;P1;durP2;ratioP2;P2;SDS_P1;SDS_P2;PMS_P1;PMS_P2;Temp;Humidity;BMP_temperature;BMP_pressure;BME280_temperature;BME280_humidity;BME280_pressure;Samples;Min_cycle;Max_cycle;Signal;HPM_P1;HPM_P2
2022/10/21 00:00:46;;;;;;;;;;;;;;;8.54;60.16;100412.59;4351663;32;32734;-83
2022/10/21 00:03:16;;;;;;;;;;;;;;;8.50;60.43;100413.41;4340487;33;34679;-83
2022/10/21 00:05:45;;;;;;;;;;;;;;;8.32;61.10;100411.53;4342043;33;33492;-83
2022/10/21 00:08:17;;;;;;;;;;;;;;;8.44;60.66;100403.06;4348043;32;33616;-86
2022/10/21 00:10:55;;;;;;;;;;;;;;;8.42;60.55;100412.50;4357309;32;33197;-83
2022/10/21 00:13:24;;;;;;;;;;;;;;;8.34;60.71;100412.44;4353953;32;33274;-82
2022/10/21 00:15:57;;;;;;;;;;;;;;;8.37;60.71;100408.12;4354586;32;34309;-83
2022/10/21 00:18:26;;;;;;;;;;;;;;;8.27;61.09;100413.25;4352317;32;34711;-86
2022/10/21 00:21:05;;;;;;;;;;;;;;;8.39;60.61;100409.03;4347555;32;33939;-86
2022/10/21 00:23:35;;;;;;;;;;;;;;;8.35;60.76;100402.94;4352205;32;32718;-86
2022/10/21 00:26:05;;;;;;;;;;;;;;;8.35;60.47;100400.38;4347225;32;33901;-85
2022/10/21 00:28:37;;;;;;;;;;;;;;;8.29;60.81;100392.56;4347741;32;34711;-85
2022/10/21 00:31:06;;;;;;;;;;;;;;;8.19;61.02;100393.34;4343861;32;33068;-85
2022/10/21 00:33:35;;;;;;;;;;;;;;;8.21;60.90;100386.47;4351874;32;34018;-85
2022/10/21 00:36:07;;;;;;;;;;;;;;;8.20;60.90;100387.34;4354429;32;33963;-86
2022/10/21 00:38:36;;;;;;;;;;;;;;;8.17;61.03;100384.75;4349243;32;34616;-87
2022/10/21 00:41:07;;;;;;;;;;;;;;;8.19;60.91;100378.72;4352225;32;33183;-86
2022/10/21 00:43:51;;;;;;;;;;;;;;;8.25;60.76;100372.72;4353701;32;32989;-85
2022/10/21 00:46:21;;;;;;;;;;;;;;;8.23;60.82;100367.53;4354567;32;33710;-86
2022/10/21 00:48:54;;;;;;;;;;;;;;;8.21;60.92;100368.38;4350994;32;32891;-85
2022/10/21 00:51:23;;;;;;;;;;;;;;;8.12;60.85;100372.63;4350465;32;33107;-83
2022/10/21 00:53:58;;;;;;;;;;;;;;;8.09;61.14;100362.28;4355278;32;34545;-84
2022/10/21 00:56:30;;;;;;;;;;;;;;;8.12;60.90;100364.88;4349165;32;34027;-84
2022/10/21 00:58:59;;;;;;;;;;;;;;;8.22;60.50;100359.78;4358087;32;34006;-85
2022/10/21 01:01:29;;;;;;;;;;;;;;;8.22;60.42;100364.97;4351985;32;32698;-85
2022/10/21 01:04:00;;;;;;;;;;;;;;;8.18;60.58;100358.87;4348069;32;34490;-88
2022/10/21 01:06:28;;;;;;;;;;;;;;;8.08;60.96;100359.69;4349907;32;34221;-85
2022/10/21 01:08:57;;;;;;;;;;;;;;;8.06;60.78;100357.06;4359894;32;33364;-84
2022/10/21 01:11:29;;;;;;;;;;;;;;;8.00;61.01;100351.88;4347449;32;33057;-85
2022/10/21 01:14:06;;;;;;;;;;;;;;;7.93;60.97;100349.22;4352095;32;33711;-85
2022/10/21 01:16:43;;;;;;;;;;;;;;;8.15;60.50;100350.25;4341092;33;35184;-85
2022/10/21 01:19:22;;;;;;;;;;;;;;;8.01;60.60;100353.59;4341970;32;34772;-83
2022/10/21 01:21:56;;;;;;;;;;;;;;;8.07;60.67;100345.91;4341426;33;32950;-84
2022/10/21 01:24:40;;;;;;;;;;;;;;;7.96;60.89;100344.94;4346584;33;33889;-84
2022/10/21 01:27:13;;;;;;;;;;;;;;;8.13;60.28;100345.06;4358093;32;33919;-85
2022/10/21 01:29:49;;;;;;;;;;;;;;;8.00;60.78;100346.69;4356977;32;33652;-85
2022/10/21 01:32:32;;;;;;;;;;;;;;;8.03;60.89;100345.84;4344444;32;32805;-85
2022/10/21 01:35:08;;;;;;;;;;;;;;;7.97;61.15;100343.22;4342715;33;34172;-84
2022/10/21 01:37:39;;;;;;;;;;;;;;;7.83;61.80;100335.37;4352771;32;33875;-85
2022/10/21 01:40:09;;;;;;;;;;;;;;;7.97;61.31;100338.03;4343776;32;33218;-84
2022/10/21 01:42:39;;;;;;;;;;;;;;;7.86;61.53;100328.50;4346068;32;33190;-88
2022/10/21 01:45:09;;;;;;;;;;;;;;;8.03;61.09;100315.72;4347946;32;33410;-87
2022/10/21 01:47:39;;;;;;;;;;;;;;;7.90;61.15;100312.19;4354025;32;34537;-85
2022/10/21 01:50:11;;;;;;;;;;;;;;;7.68;61.84;100312.84;4358689;32;33999;-84
2022/10/21 01:52:40;;;;;;;;;;;;;;;7.85;61.70;100312.97;4352326;32;33636;-85
2022/10/21 01:55:14;;;;;;;;;;;;;;;7.80;61.60;100315.50;4355427;32;34041;-84
2022/10/21 01:57:44;;;;;;;;;;;;;;;7.69;62.08;100320.59;4347385;32;35035;-85
2022/10/21 02:00:14;;;;;;;;;;;;;;;7.85;61.42;100318.13;4348665;32;33172;-86
2022/10/21 02:02:43;;;;;;;;;;;;;;;7.84;61.55;100326.75;4349700;32;33073;-86
2022/10/21 02:05:17;;;;;;;;;;;;;;;7.84;61.63;100324.19;4345818;33;33294;-87
2022/10/21 02:07:48;;;;;;;;;;;;;;;7.92;61.33;100317.34;4340252;33;33893;-84
2022/10/21 02:10:28;;;;;;;;;;;;;;;7.88;61.67;100313.88;4346433;32;34763;-85
2022/10/21 02:13:00;;;;;;;;;;;;;;;8.05;60.96;100316.59;4360132;32;33281;-87
2022/10/21 02:15:28;;;;;;;;;;;;;;;8.02;61.10;100324.31;4357076;32;35147;-85
2022/10/21 02:18:00;;;;;;;;;;;;;;;7.87;61.76;100319.03;4352015;32;33615;-85
2022/10/21 02:20:32;;;;;;;;;;;;;;;8.07;61.09;100338.13;4344436;32;34453;-85
2022/10/21 02:23:01;;;;;;;;;;;;;;;7.97;61.38;100340.62;4353032;32;33120;-84
2022/10/21 02:25:31;;;;;;;;;;;;;;;7.96;61.49;100336.31;4349956;32;35298;-87
2022/10/21 02:28:02;;;;;;;;;;;;;;;7.96;61.47;100316.50;4343974;32;34346;-85
2022/10/21 02:30:35;;;;;;;;;;;;;;;7.99;61.14;100324.28;4350607;32;34225;-84
2022/10/21 02:33:04;;;;;;;;;;;;;;;7.98;61.18;100332.03;4346162;32;33173;-85
2022/10/21 02:35:36;;;;;;;;;;;;;;;7.96;61.47;100334.59;4358439;32;33089;-87
2022/10/21 02:38:06;;;;;;;;;;;;;;;8.00;61.19;100338.94;4354491;32;33930;-87
2022/10/21 02:40:36;;;;;;;;;;;;;;;7.88;61.92;100336.28;4353498;32;33589;-87
2022/10/21 02:43:09;;;;;;;;;;;;;;;7.69;62.61;100330.94;4357426;32;32715;-85
2022/10/21 02:45:38;;;;;;;;;;;;;;;7.85;62.15;100315.56;4356368;32;33614;-85
2022/10/21 02:48:06;;;;;;;;;;;;;;;8.00;61.27;100312.25;4360689;32;34226;-87
2022/10/21 02:50:37;;;;;;;;;;;;;;;8.00;60.87;100327.75;4354723;32;34775;-84
2022/10/21 02:53:10;;;;;;;;;;;;;;;7.92;61.00;100325.09;4355908;32;33516;-85
2022/10/21 02:55:38;;;;;;;;;;;;;;;7.99;60.86;100319.13;4356996;32;34891;-88
2022/10/21 03:00:37;;;;;;;;;;;;;;;7.91;60.53;100313.91;4356634;32;33776;-87
2022/10/21 03:03:11;;;;;;;;;;;;;;;7.96;60.26;100316.50;4349849;32;33140;-85
2022/10/21 03:05:41;;;;;;;;;;;;;;;7.82;60.84;100320.72;4354432;32;34001;-88
2022/10/21 03:08:10;;;;;;;;;;;;;;;7.88;60.82;100324.22;4341538;33;35870;-88
2022/10/21 03:10:42;;;;;;;;;;;;;;;7.70;61.25;100330.06;4354211;32;33543;-85
2022/10/21 03:13:13;;;;;;;;;;;;;;;7.77;60.88;100330.12;4355557;32;33184;-85
2022/10/21 03:15:42;;;;;;;;;;;;;;;7.76;60.94;100329.28;4356620;32;34396;-86
2022/10/21 03:18:17;;;;;;;;;;;;;;;7.81;61.01;100317.25;4355125;32;34883;-85
2022/10/21 03:20:49;;;;;;;;;;;;;;;7.80;61.19;100312.94;4361211;32;33486;-88
2022/10/21 03:23:29;;;;;;;;;;;;;;;7.75;61.59;100322.37;4358243;32;33973;-84
2022/10/21 03:25:59;;;;;;;;;;;;;;;7.77;61.33;100319.81;4358812;32;34519;-86
2022/10/21 03:28:29;;;;;;;;;;;;;;;7.73;61.48;100318.03;4355575;32;34680;-85
2022/10/21 03:31:01;;;;;;;;;;;;;;;7.81;61.20;100308.66;4351953;32;34150;-85
2022/10/21 03:33:30;;;;;;;;;;;;;;;7.69;61.62;100306.84;4361126;32;32738;-85
2022/10/21 03:36:02;;;;;;;;;;;;;;;7.69;61.46;100289.62;4353226;32;34470;-85
2022/10/21 03:38:31;;;;;;;;;;;;;;;7.81;61.12;100295.75;4354960;32;34726;-85
2022/10/21 03:40:59;;;;;;;;;;;;;;;7.78;61.27;100298.28;4357157;32;34442;-85
2022/10/21 03:43:31;;;;;;;;;;;;;;;7.84;61.52;100303.50;4355674;32;33432;-85
2022/10/21 03:46:09;;;;;;;;;;;;;;;7.65;62.23;100299.91;4356335;32;34716;-84
2022/10/21 03:48:37;;;;;;;;;;;;;;;7.66;62.61;100293.91;4354560;32;33954;-85
2022/10/21 03:51:09;;;;;;;;;;;;;;;7.75;62.38;100291.37;4355298;32;34027;-85
2022/10/21 03:53:37;;;;;;;;;;;;;;;7.76;62.70;100284.53;4355263;32;33141;-88
2022/10/21 03:56:18;;;;;;;;;;;;;;;7.48;63.39;100281.69;4352004;32;34616;-85
2022/10/21 03:58:47;;;;;;;;;;;;;;;7.75;63.03;100285.34;4360289;32;33833;-85
2022/10/21 04:01:17;;;;;;;;;;;;;;;7.66;63.35;100284.44;4354189;32;34407;-85
2022/10/21 04:03:53;;;;;;;;;;;;;;;7.77;63.47;100278.47;4353258;32;32995;-84
2022/10/21 04:06:25;;;;;;;;;;;;;;;7.93;63.34;100275.16;4340077;33;33627;-86
2022/10/21 04:09:04;;;;;;;;;;;;;;;7.50;65.20;100272.25;4354292;32;34373;-85
2022/10/21 04:11:33;;;;;;;;;;;;;;;7.84;64.25;100265.62;4359946;32;33770;-85
2022/10/21 04:14:02;;;;;;;;;;;;;;;7.80;64.58;100269.03;4356378;32;33772;-84
2022/10/21 04:16:41;;;;;;;;;;;;;;;7.82;64.58;100267.31;4342237;32;34676;-88
2022/10/21 04:19:11;;;;;;;;;;;;;;;7.84;64.61;100265.62;4351621;32;34494;-86
2022/10/21 04:21:47;;;;;;;;;;;;;;;7.94;64.49;100263.09;4359605;32;34790;-83
2022/10/21 04:24:21;;;;;;;;;;;;;;;7.98;64.15;100265.72;4355741;32;32702;-85
2022/10/21 04:26:50;;;;;;;;;;;;;;;8.08;63.91;100269.22;4353143;32;34026;-86
2022/10/21 04:29:19;;;;;;;;;;;;;;;8.17;63.31;100268.44;4350536;32;35217;-86
2022/10/21 04:31:48;;;;;;;;;;;;;;;8.03;63.74;100269.19;4351699;32;33655;-85
2022/10/21 04:34:17;;;;;;;;;;;;;;;7.98;63.98;100268.31;4360076;32;33150;-84
2022/10/21 04:36:46;;;;;;;;;;;;;;;7.63;64.83;100258.56;4357898;32;34595;-84
2022/10/21 04:39:16;;;;;;;;;;;;;;;7.78;64.69;100249.22;4351621;32;33648;-86
2022/10/21 04:41:53;;;;;;;;;;;;;;;7.91;64.10;100241.56;4355605;32;34525;-88
2022/10/21 04:44:25;;;;;;;;;;;;;;;8.03;63.65;100235.59;4359785;32;32941;-86
2022/10/21 04:46:54;;;;;;;;;;;;;;;7.85;64.65;100241.53;4360308;32;34379;-85
2022/10/21 04:49:22;;;;;;;;;;;;;;;8.10;63.79;100229.63;4354990;32;34584;-85
2022/10/21 04:51:51;;;;;;;;;;;;;;;8.07;63.77;100229.63;4351254;32;33767;-84
2022/10/21 04:54:21;;;;;;;;;;;;;;;8.24;63.27;100224.53;4352421;32;32585;-87
2022/10/21 04:56:59;;;;;;;;;;;;;;;7.82;64.65;100227.72;4354554;32;34328;-85
2022/10/21 04:59:29;;;;;;;;;;;;;;;7.86;64.77;100234.66;4347700;32;34516;-85
2022/10/21 05:01:58;;;;;;;;;;;;;;;7.98;64.26;100236.44;4350738;32;34783;-85
2022/10/21 05:04:32;;;;;;;;;;;;;;;7.84;64.88;100236.34;4354203;32;33026;-86
2022/10/21 05:07:03;;;;;;;;;;;;;;;7.72;65.22;100246.59;4347499;32;33872;-85
2022/10/21 05:09:35;;;;;;;;;;;;;;;7.91;64.53;100240.69;4359779;32;34257;-85
2022/10/21 05:12:04;;;;;;;;;;;;;;;8.01;64.03;100237.31;4357025;32;34403;-85
2022/10/21 05:14:33;;;;;;;;;;;;;;;7.74;64.94;100237.16;4357976;32;33354;-86
2022/10/21 05:17:02;;;;;;;;;;;;;;;8.06;63.94;100234.75;4356160;32;34473;-85
2022/10/21 05:19:31;;;;;;;;;;;;;;;7.88;64.40;100225.19;4347598;33;34528;-85
2022/10/21 05:22:01;;;;;;;;;;;;;;;8.10;63.77;100229.63;4341959;33;33986;-87
2022/10/21 05:24:29;;;;;;;;;;;;;;;7.94;64.14;100226.94;4349608;32;32791;-85
2022/10/21 05:27:04;;;;;;;;;;;;;;;8.08;63.72;100233.91;4352857;32;34779;-85
2022/10/21 05:29:33;;;;;;;;;;;;;;;8.05;63.52;100239.06;4355951;32;33719;-85
2022/10/21 05:32:08;;;;;;;;;;;;;;;8.29;62.76;100238.34;4357864;32;33908;-84
2022/10/21 05:34:41;;;;;;;;;;;;;;;8.16;63.19;100233.94;4352290;32;32800;-86
2022/10/21 05:37:10;;;;;;;;;;;;;;;8.15;63.31;100239.12;4344867;32;33839;-86
2022/10/21 05:39:38;;;;;;;;;;;;;;;8.06;63.40;100256.28;4356617;32;33573;-86
2022/10/21 05:42:14;;;;;;;;;;;;;;;7.97;63.79;100250.19;4357843;32;34112;-84
2022/10/21 05:44:43;;;;;;;;;;;;;;;8.12;63.64;100251.16;4357253;32;32509;-85
2022/10/21 05:47:11;;;;;;;;;;;;;;;8.28;63.15;100236.59;4356314;32;34008;-87
2022/10/21 05:49:42;;;;;;;;;;;;;;;8.31;63.27;100225.41;4349385;32;33858;-86
2022/10/21 05:52:11;;;;;;;;;;;;;;;8.08;63.81;100222.72;4347510;32;34074;-85
2022/10/21 05:54:41;;;;;;;;;;;;;;;8.23;62.91;100209.00;4346928;33;32678;-84
2022/10/21 05:57:14;;;;;;;;;;;;;;;8.22;62.87;100223.66;4344060;33;33604;-87
2022/10/21 05:59:52;;;;;;;;;;;;;;;8.07;63.84;100242.53;4350241;32;33841;-85
2022/10/21 06:02:20;;;;;;;;;;;;;;;8.49;62.15;100259.12;4340421;33;33233;-85
2022/10/21 06:04:56;;;;;;;;;;;;;;;8.38;62.77;100273.69;4345062;32;33954;-86
2022/10/21 06:07:24;;;;;;;;;;;;;;;8.63;61.86;100260.94;4355793;32;34816;-85
2022/10/21 06:10:03;;;;;;;;;;;;;;;8.54;62.30;100270.38;4347260;32;34443;-85
2022/10/21 06:12:33;;;;;;;;;;;;;;;8.46;62.80;100284.13;4355620;32;33693;-86
2022/10/21 06:15:03;;;;;;;;;;;;;;;8.42;63.10;100287.56;4352998;32;32813;-85
2022/10/21 06:17:34;;;;;;;;;;;;;;;8.61;62.56;100285.91;4360721;32;34922;-85
2022/10/21 06:20:05;;;;;;;;;;;;;;;8.81;62.04;100278.22;4360654;32;33641;-88
2022/10/21 06:22:35;;;;;;;;;;;;;;;8.72;62.17;100272.19;4359023;32;34207;-87
2022/10/21 06:25:03;;;;;;;;;;;;;;;8.69;62.51;100279.03;4361314;32;33498;-85
2022/10/21 06:27:36;;;;;;;;;;;;;;;8.93;61.97;100279.12;4356145;32;34315;-87
2022/10/21 06:30:06;;;;;;;;;;;;;;;9.00;61.48;100277.41;4358058;32;34562;-85
2022/10/21 06:32:38;;;;;;;;;;;;;;;9.03;61.21;100285.19;4351958;32;33867;-86
2022/10/21 06:35:07;;;;;;;;;;;;;;;9.10;60.79;100296.44;4351901;32;34247;-88
2022/10/21 06:37:35;;;;;;;;;;;;;;;9.01;61.04;100306.75;4351028;32;34130;-89
2022/10/21 06:40:07;;;;;;;;;;;;;;;8.95;61.67;100299.84;4353640;32;34380;-85
2022/10/21 06:42:44;;;;;;;;;;;;;;;8.93;61.50;100289.47;4353851;32;34184;-85
2022/10/21 06:45:13;;;;;;;;;;;;;;;9.09;61.05;100285.22;4347711;32;33657;-87
2022/10/21 06:47:43;;;;;;;;;;;;;;;9.10;61.06;100280.91;4347983;32;34773;-85
2022/10/21 06:50:12;;;;;;;;;;;;;;;9.14;60.93;100277.47;4355026;32;33903;-86
2022/10/21 06:52:42;;;;;;;;;;;;;;;8.91;61.64;100275.66;4356080;32;33076;-85
2022/10/21 06:55:13;;;;;;;;;;;;;;;9.12;61.15;100272.28;4353863;32;32048;-85
2022/10/21 06:57:46;;;;;;;;;;;;;;;9.22;60.70;100261.94;4349361;32;33806;-87
2022/10/21 07:00:15;;;;;;;;;;;;;;;9.45;60.46;100264.53;4351132;32;34389;-84
2022/10/21 07:02:50;;;;;;;;;;;;;;;9.46;60.03;100274.06;4351167;32;35374;-87
2022/10/21 07:05:18;;;;;;;;;;;;;;;9.38;60.41;100274.91;4356792;32;33121;-85
2022/10/21 07:07:48;;;;;;;;;;;;;;;9.55;59.88;100269.75;4357963;32;32928;-86
2022/10/21 07:10:16;;;;;;;;;;;;;;;9.40;60.37;100270.59;4355309;32;34566;-85
2022/10/21 07:12:51;;;;;;;;;;;;;;;9.46;60.47;100269.72;4356521;32;33857;-85
2022/10/21 07:15:21;;;;;;;;;;;;;;;9.71;59.76;100262.84;4361296;32;34077;-85
2022/10/21 07:17:51;;;;;;;;;;;;;;;9.66;58.91;100271.47;4345420;32;33346;-85
2022/10/21 07:20:21;;;;;;;;;;;;;;;9.58;59.20;100271.47;4347760;32;34093;-86
2022/10/21 07:22:53;;;;;;;;;;;;;;;9.78;58.44;100279.22;4356295;32;33908;-87
2022/10/21 07:25:21;;;;;;;;;;;;;;;9.81;58.01;100279.25;4358555;32;33908;-88
2022/10/21 07:27:50;;;;;;;;;;;;;;;9.83;57.72;100277.50;4356934;32;34220;-85
2022/10/21 07:30:23;;;;;;;;;;;;;;;9.99;57.87;100280.94;4350456;32;33878;-86
2022/10/21 07:32:57;;;;;;;;;;;;;;;10.07;57.04;100284.37;4352576;32;33490;-87
2022/10/21 07:35:26;;;;;;;;;;;;;;;10.42;56.33;100292.13;4356814;32;33197;-86
2022/10/21 07:37:58;;;;;;;;;;;;;;;10.28;56.86;100295.59;4360988;32;34409;-85
2022/10/21 07:40:28;;;;;;;;;;;;;;;10.55;55.66;100297.28;4350749;32;33706;-85
2022/10/21 07:42:59;;;;;;;;;;;;;;;10.48;55.54;100287.78;4344760;32;34682;-85
2022/10/21 07:45:29;;;;;;;;;;;;;;;10.23;55.90;100288.69;4347693;32;32839;-87
2022/10/21 07:47:59;;;;;;;;;;;;;;;10.72;55.09;100276.44;4353456;32;33376;-88
2022/10/21 07:50:28;;;;;;;;;;;;;;;10.55;55.60;100271.31;4355448;32;34134;-85
2022/10/21 07:52:57;;;;;;;;;;;;;;;10.77;54.76;100266.91;4346823;32;34097;-89
2022/10/21 07:55:45;;;;;;;;;;;;;;;10.84;54.54;100266.00;4354091;32;33834;-88
2022/10/21 07:58:14;;;;;;;;;;;;;;;10.79;54.17;100263.44;4349646;32;33583;-86
2022/10/21 08:00:45;;;;;;;;;;;;;;;10.86;54.56;100253.87;4344123;32;33644;-86
2022/10/21 08:03:13;;;;;;;;;;;;;;;10.71;55.55;100246.19;4354909;32;33614;-85
2022/10/21 08:05:46;;;;;;;;;;;;;;;10.85;54.68;100244.37;4351270;32;33079;-85
2022/10/21 08:08:15;;;;;;;;;;;;;;;10.76;54.69;100229.72;4351533;32;33814;-85
2022/10/21 08:10:47;;;;;;;;;;;;;;;10.75;54.38;100238.38;4348650;32;34107;-85
2022/10/21 08:13:18;;;;;;;;;;;;;;;11.03;53.53;100244.25;4360881;32;33538;-88
2022/10/21 08:15:53;;;;;;;;;;;;;;;11.03;53.60;100240.81;4349359;32;33191;-86
2022/10/21 08:18:21;;;;;;;;;;;;;;;11.04;53.84;100240.81;4351166;32;33828;-88
2022/10/21 08:20:50;;;;;;;;;;;;;;;11.06;53.73;100233.84;4346674;32;33947;-86
2022/10/21 08:23:18;;;;;;;;;;;;;;;10.85;54.48;100221.88;4347630;32;33581;-85
2022/10/21 08:25:48;;;;;;;;;;;;;;;10.88;53.65;100227.03;4351626;32;32911;-86
2022/10/21 08:28:19;;;;;;;;;;;;;;;11.18;53.55;100219.91;4355056;32;34367;-85
2022/10/21 08:30:54;;;;;;;;;;;;;;;11.51;52.86;100221.41;4354412;32;34677;-84
2022/10/21 08:33:24;;;;;;;;;;;;;;;11.48;52.72;100218.84;4357550;32;33574;-84
2022/10/21 08:35:54;;;;;;;;;;;;;;;11.74;52.01;100221.22;4359251;32;32926;-85
2022/10/21 08:38:23;;;;;;;;;;;;;;;11.93;52.32;100219.28;4360461;32;33811;-85
2022/10/21 08:40:51;;;;;;;;;;;;;;;11.65;51.80;100213.50;4354579;32;34856;-86
2022/10/21 08:43:23;;;;;;;;;;;;;;;12.01;50.90;100200.16;4351719;32;33325;-87
2022/10/21 08:45:57;;;;;;;;;;;;;;;12.00;51.59;100201.03;4351710;32;33561;-86
2022/10/21 08:48:31;;;;;;;;;;;;;;;12.25;51.03;100201.62;4349335;32;33915;-86
2022/10/21 08:51:10;;;;;;;;;;;;;;;12.38;51.15;100203.22;4339849;33;33731;-86
2022/10/21 08:53:41;;;;;;;;;;;;;;;12.53;50.73;100192.59;4340007;33;33787;-85
2022/10/21 08:56:13;;;;;;;;;;;;;;;12.53;50.47;100195.19;4345844;32;33537;-88
2022/10/21 08:58:50;;;;;;;;;;;;;;;12.72;49.69;100192.34;4344661;32;34878;-86
2022/10/21 09:01:21;;;;;;;;;;;;;;;12.52;49.56;100185.69;4355283;32;33906;-86
2022/10/21 09:03:57;;;;;;;;;;;;;;;12.73;50.12;100184.53;4344547;32;34509;-87
2022/10/21 09:06:27;;;;;;;;;;;;;;;12.72;49.78;100180.19;4347719;32;34811;-87
2022/10/21 09:09:00;;;;;;;;;;;;;;;13.01;49.48;100184.13;4353673;32;36327;-87
2022/10/21 09:11:36;;;;;;;;;;;;;;;13.22;47.62;100178.56;4351511;32;34694;-86
2022/10/21 09:14:14;;;;;;;;;;;;;;;12.89;47.76;100181.69;4358374;32;34524;-90
2022/10/21 09:16:46;;;;;;;;;;;;;;;13.08;47.11;100170.13;4352183;32;33641;-85
2022/10/21 09:19:22;;;;;;;;;;;;;;;13.14;47.45;100175.22;4356296;32;33732;-85
2022/10/21 09:21:55;;;;;;;;;;;;;;;13.18;46.71;100165.63;4351612;32;33727;-87
2022/10/21 09:24:45;;;;;;;;;;;;;;;13.18;48.30;100160.41;4360356;32;33748;-86
2022/10/21 09:27:19;;;;;;;;;;;;;;;13.40;47.47;100166.16;4357072;32;33574;-86
2022/10/21 09:30:12;;;;;;;;;;;;;;;13.34;47.69;100161.91;4356881;32;34199;-86
2022/10/21 09:32:41;;;;;;;;;;;;;;;13.24;47.33;100171.59;4356698;32;33868;-84
2022/10/21 09:35:14;;;;;;;;;;;;;;;13.69;46.02;100159.56;4356338;32;34599;-89
2022/10/21 09:37:44;;;;;;;;;;;;;;;13.70;46.39;100151.72;4356311;32;31659;-86
2022/10/21 09:40:15;;;;;;;;;;;;;;;13.72;46.05;100151.69;4350833;32;33000;-88
2022/10/21 09:42:48;;;;;;;;;;;;;;;13.99;45.10;100143.34;4357912;32;32196;-84
2022/10/21 09:47:58;;;;;;;;;;;;;;;13.99;45.07;100140.72;4353212;32;33564;-84
2022/10/21 09:50:29;;;;;;;;;;;;;;;14.19;45.41;100131.63;4351526;32;32629;-85
2022/10/21 09:53:05;;;;;;;;;;;;;;;14.18;45.16;100136.00;4357475;32;33870;-85
2022/10/21 09:55:37;;;;;;;;;;;;;;;14.13;45.08;100122.16;4360329;32;34483;-86
2022/10/21 09:58:06;;;;;;;;;;;;;;;14.03;44.92;100113.66;4355302;32;33900;-84
2022/10/21 10:00:40;;;;;;;;;;;;;;;14.15;44.42;100117.78;4353908;32;33366;-84
2022/10/21 10:03:15;;;;;;;;;;;;;;;14.43;43.61;100122.41;4357022;32;35021;-85
2022/10/21 10:05:47;;;;;;;;;;;;;;;14.46;42.89;100119.72;4359710;32;33699;-86
2022/10/21 10:08:26;;;;;;;;;;;;;;;14.41;43.81;100112.00;4355699;32;33859;-83
2022/10/21 10:11:01;;;;;;;;;;;;;;;14.67;43.71;100111.44;4351943;32;34918;-83
2022/10/21 10:13:30;;;;;;;;;;;;;;;14.81;44.16;100107.63;4353680;32;34525;-85
2022/10/21 10:16:12;;;;;;;;;;;;;;;14.84;43.33;100094.53;4359153;32;34177;-83
2022/10/21 10:18:41;;;;;;;;;;;;;;;14.81;42.80;100095.47;4354684;32;34181;-86
2022/10/21 10:21:12;;;;;;;;;;;;;;;14.86;42.58;100080.53;4354605;32;34553;-86
2022/10/21 10:23:43;;;;;;;;;;;;;;;14.84;42.73;100076.25;4355687;32;33621;-85
2022/10/21 10:26:17;;;;;;;;;;;;;;;14.87;43.61;100071.78;4357370;32;34456;-88
2022/10/21 10:28:52;;;;;;;;;;;;;;;14.92;43.13;100076.91;4347584;32;33887;-87
2022/10/21 10:31:29;;;;;;;;;;;;;;;15.06;43.11;100076.56;4358478;32;33713;-86
2022/10/21 10:34:02;;;;;;;;;;;;;;;15.22;42.45;100072.66;4351646;32;33666;-86
2022/10/21 10:36:36;;;;;;;;;;;;;;;15.38;42.76;100072.25;4355146;32;33867;-86
2022/10/21 10:39:09;;;;;;;;;;;;;;;15.18;41.98;100071.00;4352314;32;32416;-87
2022/10/21 10:41:39;;;;;;;;;;;;;;;15.48;41.51;100065.84;4355104;32;33701;-86
2022/10/21 10:44:13;;;;;;;;;;;;;;;15.72;41.59;100053.91;4359481;32;33014;-85
2022/10/21 10:46:42;;;;;;;;;;;;;;;15.48;41.85;100058.00;4352589;32;33736;-87
2022/10/21 10:49:20;;;;;;;;;;;;;;;15.71;40.99;100042.59;4351888;32;32898;-86
2022/10/21 10:52:04;;;;;;;;;;;;;;;15.61;41.32;100041.09;4352609;32;33885;-87
2022/10/21 10:54:35;;;;;;;;;;;;;;;15.61;41.61;100035.88;4359815;32;33552;-86
2022/10/21 10:57:06;;;;;;;;;;;;;;;15.89;41.23;100032.47;4358687;32;33824;-88
2022/10/21 10:59:40;;;;;;;;;;;;;;;15.62;41.73;100024.50;4354237;32;33118;-86
2022/10/21 11:02:17;;;;;;;;;;;;;;;15.44;41.83;100011.94;4351229;32;33529;-87
2022/10/21 11:04:52;;;;;;;;;;;;;;;15.66;41.40;100007.81;4355627;32;33562;-92
2022/10/21 11:07:35;;;;;;;;;;;;;;;15.72;41.39;100017.28;4352845;32;34382;-90
2022/10/21 11:10:07;;;;;;;;;;;;;;;15.72;41.64;100010.28;4358134;32;32751;-92
2022/10/21 11:12:37;;;;;;;;;;;;;;;15.68;42.21;100013.87;4352523;32;33466;-87
2022/10/21 11:15:07;;;;;;;;;;;;;;;15.73;41.92;100012.00;4355353;32;33383;-86
2022/10/21 11:17:37;;;;;;;;;;;;;;;15.50;41.23;100004.78;4356480;32;34436;-88
2022/10/21 11:20:07;;;;;;;;;;;;;;;15.64;41.41;100001.78;4354709;32;33890;-87
2022/10/21 11:22:40;;;;;;;;;;;;;;;15.50;41.60;100003.94;4354478;32;33808;-85
2022/10/21 11:25:16;;;;;;;;;;;;;;;15.72;41.06;99996.34;4352277;32;33716;-89
2022/10/21 11:28:06;;;;;;;;;;;;;;;15.74;40.66;99987.56;4352525;32;34128;-90
2022/10/21 11:30:47;;;;;;;;;;;;;;;15.46;41.09;99986.59;4352564;32;33589;-86
2022/10/21 11:33:17;;;;;;;;;;;;;;;15.77;40.56;99986.59;4351559;32;33754;-87
2022/10/21 11:35:48;;;;;;;;;;;;;;;15.66;41.16;99976.44;4358589;32;34910;-87
2022/10/21 11:38:27;;;;;;;;;;;;;;;15.75;40.17;99973.59;4356121;32;33402;-84
2022/10/21 11:41:00;;;;;;;;;;;;;;;15.55;41.07;99960.19;4352092;32;31612;-88
2022/10/21 11:43:32;;;;;;;;;;;;;;;15.77;40.71;99955.22;4354411;32;33850;-92
2022/10/21 11:46:08;;;;;;;;;;;;;;;15.43;41.20;99955.31;4358561;32;35235;-85
2022/10/21 11:48:41;;;;;;;;;;;;;;;15.45;41.46;99954.38;4357033;32;33799;-90
2022/10/21 11:51:13;;;;;;;;;;;;;;;15.85;40.35;99957.59;4353561;32;32946;-84
2022/10/21 11:53:50;;;;;;;;;;;;;;;15.63;40.60;99957.34;4354217;32;33981;-86
2022/10/21 11:56:21;;;;;;;;;;;;;;;15.74;40.74;99948.31;4356769;32;34953;-87
2022/10/21 11:59:00;;;;;;;;;;;;;;;15.32;41.16;99946.03;4353706;32;33570;-86
2022/10/21 12:01:29;;;;;;;;;;;;;;;15.87;40.36;99940.94;4359488;32;33159;-89
2022/10/21 12:04:06;;;;;;;;;;;;;;;15.67;40.72;99924.97;4352849;32;34179;-86
2022/10/21 12:06:37;;;;;;;;;;;;;;;15.79;40.54;99924.63;4347410;32;33563;-87
2022/10/21 12:09:17;;;;;;;;;;;;;;;15.98;40.08;99922.31;4347732;32;33401;-89
2022/10/21 12:11:46;;;;;;;;;;;;;;;16.01;39.03;99924.81;4354668;32;33561;-86
2022/10/21 12:14:22;;;;;;;;;;;;;;;15.99;39.21;99934.47;4355332;32;34083;-90
2022/10/21 12:17:07;;;;;;;;;;;;;;;15.61;38.93;99919.91;4346156;32;34769;-90
2022/10/21 12:19:39;;;;;;;;;;;;;;;15.93;38.50;99916.38;4340163;33;34397;-87
2022/10/21 12:22:07;;;;;;;;;;;;;;;15.82;39.12;99921.06;4340733;32;33010;-88
2022/10/21 12:24:42;;;;;;;;;;;;;;;15.71;39.63;99926.66;4358363;32;34270;-86
2022/10/21 12:27:21;;;;;;;;;;;;;;;15.48;40.04;99922.06;4360479;32;33727;-86
2022/10/21 12:29:54;;;;;;;;;;;;;;;15.49;39.25;99919.41;4357949;32;33303;-91
2022/10/21 12:32:31;;;;;;;;;;;;;;;15.57;39.36;99914.78;4350966;32;34215;-85
2022/10/21 12:35:09;;;;;;;;;;;;;;;15.65;39.56;99913.69;4357573;32;34310;-88
2022/10/21 12:37:58;;;;;;;;;;;;;;;15.62;39.58;99904.19;4354983;32;34182;-89
2022/10/21 12:40:37;;;;;;;;;;;;;;;15.52;40.03;99908.84;4355646;32;33600;-83
2022/10/21 12:43:06;;;;;;;;;;;;;;;15.21;40.34;99903.66;4357441;32;33878;-86
2022/10/21 12:45:41;;;;;;;;;;;;;;;15.25;39.84;99905.28;4341401;32;34387;-84
2022/10/21 12:48:22;;;;;;;;;;;;;;;15.39;39.86;99901.41;4341808;33;34115;-86
2022/10/21 12:50:57;;;;;;;;;;;;;;;15.48;40.20;99885.44;4348494;32;33774;-86
2022/10/21 12:53:30;;;;;;;;;;;;;;;15.62;40.17;99883.28;4345385;32;34295;-84
2022/10/21 12:56:06;;;;;;;;;;;;;;;15.53;39.40;99875.72;4348096;32;36279;-87
2022/10/21 12:58:40;;;;;;;;;;;;;;;15.23;40.00;99886.19;4354828;32;34449;-84
2022/10/21 13:01:34;;;;;;;;;;;;;;;15.27;40.15;99881.72;4347553;32;34518;-84
2022/10/21 13:04:09;;;;;;;;;;;;;;;15.51;40.03;99875.78;4345730;32;32657;-85
2022/10/21 13:06:47;;;;;;;;;;;;;;;15.56;39.92;99883.47;4341755;33;33722;-87
2022/10/21 13:09:33;;;;;;;;;;;;;;;15.51;40.26;99886.22;4345129;32;34093;-86
2022/10/21 13:12:04;;;;;;;;;;;;;;;15.74;39.89;99879.47;4356629;32;34171;-85
2022/10/21 13:14:43;;;;;;;;;;;;;;;15.70;39.91;99878.69;4350550;32;33655;-88